Morning Shadows Ranch, CO

1:49 AM MDT on April 21, 2015 (GMT -0600)
KCOSOUTH6 | | Change Station
CLOSE
Current Station
Personal Weather Station
Location: South Fork, CO
Elevation: 8225 ft
Nearby Weather Stations

Elev 8225 ft 37.67 °N, 106.64 °W | Updated 7 seconds ago

Clear
Clear
28.0 °F
Feels Like 21 °F
N
6.8
Wind Variable Wind from WNW
Gusts 8.0 mph

Today
High -- | Low -- °F
--% Chance of Precip.
Yesterday
High -- | Low -- °F
Precip. -- in
6:23 AM 7:47 PM
Waxing Crescent, 9% visible
Pressure 30.05 in
Visibility 10.0 miles
Clouds Clear
Windchill 21 °F
Dew Point 18 °F
Humidity 64%
Rainfall 0.00 in
Snow Depth Not available.
UV 0 out of 12
Pollen 9.90 out of 12
Air Quality Not available.
Flu Activity Local Activity
METAR KPSO 210735Z AUTO 27003KT 10SM CLR M01/M08 A3005 RMK AO2 T10131076

More Conditions Fewer Conditions

Pressure 30.05 in
Visibility 10.0 miles
Clouds Clear
Windchill 21 °F
Dew Point 18 °F
Humidity 64%
Rainfall 0.00 in
Snow Depth Not available.
UV 0 out of 12
Pollen 9.90 out of 12
Air Quality Not available.
Flu Activity Local Activity
METAR KPSO 210735Z AUTO 27003KT 10SM CLR M01/M08 A3005 RMK AO2 T10131076

More Conditions Fewer Conditions

10-Day Weather Forecast

Almanac

Astronomy

Apr. 21, 2015 Rise Set
Actual Time
Civil Twilight
Nautical Twilight
Astronomical Twilight
Moon
Length of Visible Light
Length of Day
Tomorrow will be .
, % of the Moon is Illuminated

Today's Extremes

State Highs State Lows

Community

WunderPhotos

Upload Photos

1,815,324 photos uploaded!

WunderBlogs® & News

Nearby

Air Quality

  Air Quality AQ Index Pollutant
Not available.

Snow Depth

Station Depth Elevation

Earthquake Activity

City Distance Mag. Time & Date
Minimum magnitude displayed is 2.5.

Coastal Water Temperatures

Place Temperature

Stations

Nearby Weather Stations

Station Location Temp. Windchill Dew Point Humidity Wind Precip. Elev Updated Type